Perry, Georgia
Current Conditions -  °F | °C
As of 10:15 AM on Monday 24 Nov 2014 (Local Time) from KPXE Reporting Station
Scattered Clouds Scattered Clouds  
Wind Chill: 73°   Ceiling: Unl
Heat Index: 73°   Visibility: 7mi
Dew Point: 66°   Wind: 7mph
Humidity: 81%   Direction: 210°SSW
Pressure: 29.86"   Gusts: NA
Location:  32.46°N, 83.73°W
Report Text: KPXE 241515Z AUTO 21006KT 7SM SCT008 SCT012 SCT095 23/19 A2986 RMK AO2 LTG DSNT SW T02250190
Loading
Personal Weather Stations






























Interactive Weather Map New forecast layout! Learn more

10-Day Weather Forecast

Advertisements
Track Severe Weather on mobile